createdAt,value
2018-03-06T00:01:47.689Z,97947.05
2018-03-06T00:04:15.301Z,97944.66
2018-03-06T00:06:43.124Z,97946.10
2018-03-06T00:09:10.944Z,97937.84
2018-03-06T00:11:38.573Z,97924.17
2018-03-06T00:14:06.382Z,97940.48
2018-03-06T00:16:33.954Z,97937.34
2018-03-06T00:19:01.555Z,97936.70
2018-03-06T00:21:29.143Z,97918.80
2018-03-06T00:23:56.792Z,97917.88
2018-03-06T00:26:24.388Z,97910.63
2018-03-06T00:28:52.149Z,97908.24
2018-03-06T00:31:19.909Z,97903.59
2018-03-06T00:33:47.504Z,97901.09
2018-03-06T00:36:15.341Z,97883.91
2018-03-06T00:38:42.929Z,97887.27
2018-03-06T00:41:10.514Z,97876.15
2018-03-06T00:43:38.294Z,97876.58
2018-03-06T00:46:05.920Z,97869.61
2018-03-06T00:48:33.558Z,97858.63
2018-03-06T00:51:01.320Z,97865.39
2018-03-06T00:53:29.057Z,97872.58
2018-03-06T00:55:56.653Z,97883.69
2018-03-06T00:58:24.245Z,97868.11
2018-03-06T01:00:51.906Z,97863.20
2018-03-06T01:03:19.493Z,97862.22
2018-03-06T01:05:47.259Z,97853.88
2018-03-06T01:08:14.858Z,97856.22
2018-03-06T01:10:42.458Z,97848.30
2018-03-06T01:13:10.088Z,97857.41
2018-03-06T01:15:37.706Z,97865.37
2018-03-06T01:18:05.297Z,97866.08
2018-03-06T01:20:33.062Z,97860.07
2018-03-06T01:23:00.881Z,97855.62
2018-03-06T01:25:28.520Z,97844.14
2018-03-06T01:27:56.114Z,97846.32
2018-03-06T01:30:23.939Z,97839.83
2018-03-06T01:32:51.531Z,97827.76
2018-03-06T01:35:19.234Z,97825.48
2018-03-06T01:37:47.090Z,97819.92
2018-03-06T01:40:14.704Z,97817.66
2018-03-06T01:42:42.286Z,97816.45
2018-03-06T01:45:09.880Z,97819.99
2018-03-06T01:47:37.472Z,97817.78
2018-03-06T01:50:05.133Z,97817.44
2018-03-06T01:52:32.733Z,97812.11
2018-03-06T01:55:00.322Z,97801.50
2018-03-06T01:57:27.953Z,97793.09
2018-03-06T01:59:55.543Z,97795.89
2018-03-06T02:02:23.202Z,97799.94
2018-03-06T02:04:50.850Z,97798.59
2018-03-06T02:07:18.495Z,97804.82
2018-03-06T02:09:46.089Z,97795.55
2018-03-06T02:12:13.845Z,97788.95
2018-03-06T02:14:41.667Z,97796.42
2018-03-06T02:17:09.360Z,97790.72
2018-03-06T02:19:37.175Z,97793.11
2018-03-06T02:22:04.894Z,97792.70
2018-03-06T02:24:32.473Z,97798.36
2018-03-06T02:27:00.107Z,97796.55
2018-03-06T02:29:27.694Z,97785.58
2018-03-06T02:31:55.299Z,97791.80
2018-03-06T02:34:22.877Z,97785.50
2018-03-06T02:36:50.720Z,97780.62
2018-03-06T02:39:18.378Z,97779.51
2018-03-06T02:41:46.156Z,97782.16
2018-03-06T02:44:13.748Z,97776.94
2018-03-06T02:46:41.343Z,97777.44
2018-03-06T02:49:09.074Z,97782.87
2018-03-06T02:51:36.768Z,97772.44
2018-03-06T02:54:04.380Z,97774.70
2018-03-06T02:56:31.965Z,97769.24
2018-03-06T02:58:59.782Z,97762.29
2018-03-06T03:01:27.367Z,97756.25
2018-03-06T03:03:55.026Z,97754.97
2018-03-06T03:06:22.836Z,97748.12
2018-03-06T03:08:50.657Z,97741.88
2018-03-06T03:11:18.477Z,97739.52
2018-03-06T03:13:46.058Z,97741.14
2018-03-06T03:16:13.706Z,97748.56
2018-03-06T03:18:41.294Z,97747.48
2018-03-06T03:21:08.876Z,97753.78
2018-03-06T03:23:36.475Z,97757.48
2018-03-06T03:26:04.061Z,97743.20
2018-03-06T03:28:31.783Z,97739.06
2018-03-06T03:30:59.518Z,97748.84
2018-03-06T03:33:27.339Z,97756.56
2018-03-06T03:35:55.132Z,97764.15
2018-03-06T03:38:22.715Z,97761.91
2018-03-06T03:40:50.380Z,97758.71
2018-03-06T03:43:17.965Z,97751.41
2018-03-06T03:45:45.531Z,97754.40
2018-03-06T03:48:13.342Z,97739.69
2018-03-06T03:50:40.941Z,97729.15
2018-03-06T03:53:08.610Z,97733.05
2018-03-06T03:55:36.195Z,97730.14
2018-03-06T03:58:03.766Z,97734.33
2018-03-06T04:00:31.373Z,97731.70
2018-03-06T04:02:59.134Z,97723.88
2018-03-06T04:05:26.783Z,97715.66
2018-03-06T04:07:54.585Z,97709.48
2018-03-06T04:10:22.406Z,97712.30
2018-03-06T04:12:50.222Z,97719.95
2018-03-06T04:15:17.854Z,97718.64
2018-03-06T04:17:45.506Z,97712.38
2018-03-06T04:20:13.100Z,97707.85
2018-03-06T04:22:40.864Z,97711.07
2018-03-06T04:25:08.814Z,97711.50
2018-03-06T04:27:36.410Z,97701.20
2018-03-06T04:30:04.349Z,97716.33
2018-03-06T04:32:31.949Z,97725.19
2018-03-06T04:34:59.787Z,97719.88
2018-03-06T04:37:27.558Z,97721.28
2018-03-06T04:39:55.226Z,97718.66
2018-03-06T04:42:22.880Z,97727.16
2018-03-06T04:44:50.473Z,97727.53
2018-03-06T04:47:18.071Z,97728.36
2018-03-06T04:49:45.674Z,97724.43
2018-03-06T04:52:13.512Z,97734.41
2018-03-06T04:54:41.331Z,97734.23
2018-03-06T04:57:08.945Z,97732.27
2018-03-06T04:59:36.767Z,97728.28
2018-03-06T05:02:04.354Z,97730.80
2018-03-06T05:04:31.941Z,97732.41
2018-03-06T05:06:59.569Z,97741.11
2018-03-06T05:09:27.153Z,97744.31
2018-03-06T05:11:54.939Z,97749.58
2018-03-06T05:14:22.559Z,97756.12
2018-03-06T05:16:50.392Z,97761.00
2018-03-06T05:19:18.034Z,97757.63
2018-03-06T05:21:45.679Z,97749.75
2018-03-06T05:24:13.222Z,97753.00
2018-03-06T05:26:40.839Z,97748.41
2018-03-06T05:29:08.438Z,97754.41
2018-03-06T05:31:36.301Z,97758.51
2018-03-06T05:34:04.118Z,97758.21
2018-03-06T05:36:31.723Z,97766.66
2018-03-06T05:38:59.316Z,97766.25
2018-03-06T05:41:26.915Z,97766.43
2018-03-06T05:43:54.560Z,97770.75
2018-03-06T05:46:22.376Z,97772.27
2018-03-06T05:48:49.907Z,97780.95
2018-03-06T05:51:17.506Z,97788.03
2018-03-06T05:53:45.076Z,97794.91
2018-03-06T05:56:12.834Z,97793.15
2018-03-06T05:58:40.430Z,97799.70
2018-03-06T06:01:08.009Z,97795.84
2018-03-06T06:03:35.690Z,97800.09
2018-03-06T06:06:03.270Z,97796.84
2018-03-06T06:08:30.865Z,97791.59
2018-03-06T06:10:58.577Z,97806.51
2018-03-06T06:13:26.449Z,97809.98
2018-03-06T06:15:54.055Z,97815.34
2018-03-06T06:18:21.618Z,97814.97
2018-03-06T06:20:49.200Z,97804.33
2018-03-06T06:23:16.834Z,97817.52
2018-03-06T06:25:44.402Z,97810.23
2018-03-06T06:28:11.990Z,97814.23
2018-03-06T06:30:39.832Z,97816.89
2018-03-06T06:33:07.418Z,97816.12
2018-03-06T06:35:34.998Z,97820.41
2018-03-06T06:38:02.640Z,97827.00
2018-03-06T06:40:30.205Z,97836.35
2018-03-06T06:42:57.769Z,97829.05
2018-03-06T06:45:25.394Z,97831.57
2018-03-06T06:47:52.954Z,97834.45
2018-03-06T06:50:20.562Z,97841.56
2018-03-06T06:52:48.350Z,97838.61
2018-03-06T06:55:15.914Z,97839.94
2018-03-06T06:57:43.727Z,97835.78
2018-03-06T07:00:11.354Z,97835.55
2018-03-06T07:02:39.140Z,97839.02
2018-03-06T07:05:06.702Z,97837.66
2018-03-06T07:07:34.333Z,97838.66
2018-03-06T07:10:01.900Z,97843.50
2018-03-06T07:12:29.470Z,97845.27
2018-03-06T07:14:57.251Z,97841.48
2018-03-06T07:17:24.816Z,97842.05
2018-03-06T07:19:52.384Z,97844.44
2018-03-06T07:22:20.016Z,97839.55
2018-03-06T07:24:47.575Z,97832.38
2018-03-06T07:27:15.143Z,97832.26
2018-03-06T07:29:43.003Z,97834.71
2018-03-06T07:32:10.562Z,97827.01
2018-03-06T07:34:38.121Z,97821.92
2018-03-06T07:37:05.763Z,97819.86
2018-03-06T07:39:33.322Z,97813.92
2018-03-06T07:42:01.047Z,97819.77
2018-03-06T07:44:28.672Z,97823.52
2018-03-06T07:46:56.268Z,97814.09
2018-03-06T07:49:23.834Z,97806.39
2018-03-06T07:51:51.458Z,97806.07
2018-03-06T07:54:19.024Z,97805.80
2018-03-06T07:56:46.588Z,97807.38
2018-03-06T07:59:14.215Z,97804.47
2018-03-06T08:01:41.956Z,97811.87
2018-03-06T08:04:09.671Z,97805.06
2018-03-06T08:06:37.290Z,97805.46
2018-03-06T08:09:04.915Z,97799.38
2018-03-06T08:11:32.662Z,97798.44
2018-03-06T08:14:00.296Z,97797.77
2018-03-06T08:16:28.098Z,97801.62
2018-03-06T08:18:55.657Z,97796.13
2018-03-06T08:21:23.278Z,97797.48
2018-03-06T08:23:50.848Z,97789.97
2018-03-06T08:26:18.668Z,97795.77
2018-03-06T08:28:46.488Z,97795.82
2018-03-06T08:31:14.206Z,97788.93
2018-03-06T08:33:41.766Z,97815.50
2018-03-06T08:36:09.375Z,97815.36
2018-03-06T08:38:36.938Z,97819.73
2018-03-06T08:41:04.505Z,97808.16
2018-03-06T08:43:32.081Z,97800.69
2018-03-06T08:45:59.641Z,97801.60
2018-03-06T08:48:27.260Z,97800.48
2018-03-06T08:50:54.858Z,97817.33
2018-03-06T08:53:22.665Z,97824.30
2018-03-06T08:55:50.225Z,97820.92
2018-03-06T08:58:17.977Z,97829.98
2018-03-06T09:00:45.819Z,97832.14
2018-03-06T09:03:13.538Z,97827.61
2018-03-06T09:05:41.149Z,97825.45
2018-03-06T09:08:08.734Z,97826.78
2018-03-06T09:10:36.330Z,97816.16
2018-03-06T09:13:03.947Z,97822.42
2018-03-06T09:15:31.690Z,97817.45
2018-03-06T09:17:59.245Z,97818.49
2018-03-06T09:20:26.806Z,97804.89
2018-03-06T09:22:54.362Z,97799.52
2018-03-06T09:25:22.198Z,97800.06
2018-03-06T09:27:49.916Z,97806.08
2018-03-06T09:30:17.613Z,97798.25
2018-03-06T09:32:45.190Z,97791.07
2018-03-06T09:35:12.746Z,97789.53
2018-03-06T09:37:40.588Z,97796.38
2018-03-06T09:40:08.168Z,97797.41
2018-03-06T09:42:35.722Z,97790.72
2018-03-06T09:45:03.308Z,97790.07
2018-03-06T09:47:30.862Z,97787.54
2018-03-06T09:49:58.678Z,97783.28
2018-03-06T09:52:26.248Z,97774.70
2018-03-06T09:54:53.820Z,97764.52
2018-03-06T09:57:21.390Z,97761.55
2018-03-06T09:59:49.149Z,97765.47
2018-03-06T10:02:16.770Z,97758.55
2018-03-06T10:04:44.334Z,97765.45
2018-03-06T10:07:12.101Z,97764.73
2018-03-06T10:09:39.710Z,97770.75
2018-03-06T10:12:07.270Z,97783.23
2018-03-06T10:14:35.156Z,97793.63
2018-03-06T10:17:02.972Z,97794.84
2018-03-06T10:19:30.569Z,97801.91
2018-03-06T10:21:58.133Z,97796.27
2018-03-06T10:24:25.675Z,97800.63
2018-03-06T10:26:53.290Z,97794.79
2018-03-06T10:29:20.954Z,97782.80
2018-03-06T10:31:48.515Z,97754.53
2018-03-06T10:34:16.110Z,97743.93
2018-03-06T10:36:43.916Z,97750.73
2018-03-06T10:39:11.735Z,97752.48
2018-03-06T10:41:39.294Z,97753.75
2018-03-06T10:44:06.849Z,97764.16
2018-03-06T10:46:34.480Z,97769.41
2018-03-06T10:49:02.056Z,97768.81
2018-03-06T10:51:29.924Z,97763.52
2018-03-06T10:53:57.616Z,97756.97
2018-03-06T10:56:25.173Z,97751.14
2018-03-06T10:58:52.769Z,97743.22
2018-03-06T11:01:25.345Z,97742.73
2018-03-06T11:03:53.134Z,97729.73
2018-03-06T11:06:21.852Z,97729.64
2018-03-06T11:08:49.476Z,97730.47
2018-03-06T11:11:17.069Z,97722.52
2018-03-06T11:13:44.634Z,97723.34
2018-03-06T11:16:12.338Z,97729.80
2018-03-06T11:18:39.908Z,97735.22
2018-03-06T11:21:07.469Z,97720.18
2018-03-06T11:23:35.279Z,97708.80
2018-03-06T11:26:02.841Z,97728.74
2018-03-06T11:28:30.462Z,97743.16
2018-03-06T11:30:58.232Z,97747.64
2018-03-06T11:33:25.799Z,97747.66
2018-03-06T11:35:53.671Z,97747.32
2018-03-06T11:38:21.229Z,97738.08
2018-03-06T11:40:48.790Z,97722.24
2018-03-06T11:43:16.622Z,97711.02
2018-03-06T11:45:44.185Z,97707.42
2018-03-06T11:48:11.958Z,97699.44
2018-03-06T11:50:39.526Z,97704.03
2018-03-06T11:53:07.098Z,97703.02
2018-03-06T11:55:34.722Z,97714.53
2018-03-06T11:58:02.422Z,97729.77
2018-03-06T12:00:29.989Z,97730.78
2018-03-06T12:02:57.657Z,97725.12
2018-03-06T12:05:25.218Z,97729.55
2018-03-06T12:07:52.827Z,97720.69
2018-03-06T12:10:20.390Z,97725.66
2018-03-06T12:12:47.970Z,97714.59
2018-03-06T12:15:15.561Z,97714.67
2018-03-06T12:17:43.162Z,97709.53
2018-03-06T12:20:10.794Z,97722.28
2018-03-06T12:22:38.607Z,97732.36
2018-03-06T12:25:06.210Z,97741.32
2018-03-06T12:27:33.782Z,97733.72
2018-03-06T12:30:01.355Z,97727.05
2018-03-06T12:32:28.981Z,97727.27
2018-03-06T12:34:56.710Z,97724.22
2018-03-06T12:37:24.282Z,97716.75
2018-03-06T12:39:52.153Z,97712.86
2018-03-06T12:42:19.740Z,97709.40
2018-03-06T12:44:47.358Z,97716.93
2018-03-06T12:47:15.186Z,97724.43
2018-03-06T12:49:42.897Z,97717.58
2018-03-06T12:52:10.639Z,97701.90
2018-03-06T12:54:38.215Z,97690.70
2018-03-06T12:57:05.843Z,97696.70
2018-03-06T12:59:33.492Z,97691.13
2018-03-06T13:02:01.296Z,97699.84
2018-03-06T13:04:28.910Z,97688.59
2018-03-06T13:06:56.482Z,97676.73
2018-03-06T13:09:24.109Z,97668.95
2018-03-06T13:11:51.865Z,97663.48
2018-03-06T13:14:19.494Z,97650.86
2018-03-06T13:16:47.082Z,97642.19
2018-03-06T13:19:14.650Z,97649.05
2018-03-06T13:21:42.437Z,97646.63
2018-03-06T13:24:10.046Z,97648.14
2018-03-06T13:26:37.610Z,97650.02
2018-03-06T13:29:05.286Z,97658.78
2018-03-06T13:31:33.009Z,97652.27
2018-03-06T13:34:00.655Z,97636.14
2018-03-06T13:36:28.446Z,97625.62
2018-03-06T13:38:56.057Z,97625.33
2018-03-06T13:41:23.881Z,97629.30
2018-03-06T13:43:51.700Z,97640.52
2018-03-06T13:46:19.519Z,97645.67
2018-03-06T13:48:47.085Z,97644.98
2018-03-06T13:51:14.654Z,97646.45
2018-03-06T13:53:42.221Z,97648.86
2018-03-06T13:56:09.831Z,97657.44
2018-03-06T13:58:37.446Z,97654.82
2018-03-06T14:01:05.022Z,97645.36
2018-03-06T14:03:32.586Z,97653.17
2018-03-06T14:06:00.162Z,97657.45
2018-03-06T14:08:27.770Z,97658.34
2018-03-06T14:10:55.482Z,97669.48
2018-03-06T14:13:23.215Z,97680.94
2018-03-06T14:15:51.136Z,97688.80
2018-03-06T14:18:18.745Z,97678.89
2018-03-06T14:20:46.471Z,97673.27
2018-03-06T14:23:14.109Z,97671.06
2018-03-06T14:25:41.656Z,97667.45
2018-03-06T14:28:09.408Z,97672.05
2018-03-06T14:30:37.244Z,97666.39
2018-03-06T14:33:05.061Z,97662.98
2018-03-06T14:35:32.830Z,97656.44
2018-03-06T14:38:00.395Z,97672.59
2018-03-06T14:40:28.088Z,97684.42
2018-03-06T14:42:55.654Z,97693.21
2018-03-06T14:45:23.213Z,97697.43
2018-03-06T14:47:51.068Z,97687.70
2018-03-06T14:50:18.886Z,97676.08
2018-03-06T14:52:46.460Z,97672.63
2018-03-06T14:55:14.224Z,97667.23
2018-03-06T14:57:41.780Z,97676.58
2018-03-06T15:00:09.448Z,97685.92
2018-03-06T15:02:36.991Z,97682.94
2018-03-06T15:05:04.793Z,97687.69
2018-03-06T15:07:32.495Z,97696.16
2018-03-06T15:10:00.230Z,97699.93
2018-03-06T15:12:27.873Z,97707.08
2018-03-06T15:14:55.667Z,97716.30
2018-03-06T15:17:23.484Z,97711.89
2018-03-06T15:19:51.059Z,97702.92
2018-03-06T15:22:18.820Z,97698.47
2018-03-06T15:24:46.453Z,97689.06
2018-03-06T15:27:14.028Z,97679.18
2018-03-06T15:29:41.617Z,97682.09
2018-03-06T15:32:09.299Z,97674.38
2018-03-06T15:34:37.110Z,97685.14
2018-03-06T15:37:04.928Z,97688.84
2018-03-06T15:39:32.497Z,97685.92
2018-03-06T15:42:00.068Z,97685.78
2018-03-06T15:44:27.659Z,97698.05
2018-03-06T15:46:55.399Z,97694.71
2018-03-06T15:49:22.999Z,97707.42
2018-03-06T15:51:50.557Z,97715.75
2018-03-06T15:54:18.354Z,97710.95
2018-03-06T15:56:46.092Z,97715.48
2018-03-06T15:59:13.657Z,97711.98
2018-03-06T16:01:41.301Z,97712.13
2018-03-06T16:04:09.126Z,97700.70
2018-03-06T16:06:36.859Z,97696.56
2018-03-06T16:09:04.552Z,97692.50
2018-03-06T16:11:32.281Z,97704.52
2018-03-06T16:14:00.099Z,97706.20
2018-03-06T16:16:27.917Z,97712.44
2018-03-06T16:18:55.486Z,97713.73
2018-03-06T16:21:23.140Z,97721.59
2018-03-06T16:23:50.872Z,97709.25
2018-03-06T16:26:18.558Z,97690.55
2018-03-06T16:28:46.118Z,97679.31
2018-03-06T16:31:13.925Z,97674.79
2018-03-06T16:33:41.744Z,97682.44
2018-03-06T16:36:09.317Z,97688.47
2018-03-06T16:38:36.941Z,97694.63
2018-03-06T16:41:04.514Z,97714.34
2018-03-06T16:43:32.096Z,97721.36
2018-03-06T16:45:59.674Z,97713.89
2018-03-06T16:48:27.242Z,97700.96
2018-03-06T16:50:54.877Z,97699.55
2018-03-06T16:53:22.687Z,97695.80
2018-03-06T16:55:50.505Z,97695.78
2018-03-06T16:58:18.108Z,97704.48
2018-03-06T17:00:45.820Z,97717.54
2018-03-06T17:03:13.459Z,97723.59
2018-03-06T17:05:41.028Z,97711.22
2018-03-06T17:08:08.750Z,97689.88
2018-03-06T17:10:36.513Z,97664.19
2018-03-06T17:13:04.086Z,97658.79
2018-03-06T17:15:31.722Z,97666.36
2018-03-06T17:17:59.282Z,97669.73
2018-03-06T17:20:26.842Z,97676.63
2018-03-06T17:22:54.428Z,97676.94
2018-03-06T17:25:21.996Z,97669.66
2018-03-06T17:27:49.638Z,97665.05
2018-03-06T17:30:17.457Z,97691.17
2018-03-06T17:32:45.022Z,97707.23
2018-03-06T17:35:12.595Z,97707.10
2018-03-06T17:37:40.157Z,97695.45
2018-03-06T17:40:07.780Z,97691.77
2018-03-06T17:42:35.544Z,97698.69
2018-03-06T17:45:03.122Z,97695.06
2018-03-06T17:47:30.821Z,97691.25
2018-03-06T17:49:58.498Z,97690.89
2018-03-06T17:52:26.221Z,97693.28
2018-03-06T17:54:54.937Z,97689.08
2018-03-06T17:57:22.506Z,97672.16
2018-03-06T17:59:50.121Z,97658.88
2018-03-06T18:02:17.692Z,97665.25
2018-03-06T18:04:45.510Z,97670.39
2018-03-06T18:07:13.331Z,97687.98
2018-03-06T18:09:40.902Z,97698.84
2018-03-06T18:12:08.664Z,97695.66
2018-03-06T18:14:36.281Z,97699.31
2018-03-06T18:17:04.091Z,97701.42
2018-03-06T18:19:31.909Z,97705.05
2018-03-06T18:21:59.540Z,97707.05
2018-03-06T18:24:27.353Z,97693.05
2018-03-06T18:26:55.174Z,97688.94
2018-03-06T18:29:22.982Z,97686.88
2018-03-06T18:31:50.595Z,97679.30
2018-03-06T18:34:18.175Z,97678.19
2018-03-06T18:36:45.897Z,97683.97
2018-03-06T18:39:13.420Z,97682.41
2018-03-06T18:41:41.162Z,97681.52
2018-03-06T18:44:08.783Z,97672.46
2018-03-06T18:46:36.335Z,97665.28
2018-03-06T18:49:04.121Z,97656.05
2018-03-06T18:51:31.690Z,97651.08
2018-03-06T18:53:59.265Z,97656.41
2018-03-06T18:56:26.819Z,97658.05
2018-03-06T18:58:54.439Z,97655.43
2018-03-06T19:04:35.618Z,97669.02
2018-03-06T19:07:08.337Z,97675.41
2018-03-06T19:09:35.960Z,97682.47
2018-03-06T19:12:03.658Z,97672.48
2018-03-06T19:14:31.233Z,97675.21
2018-03-06T19:16:58.864Z,97683.09
2018-03-06T19:19:26.421Z,97683.09
2018-03-06T19:21:53.986Z,97686.66
2018-03-06T19:24:21.964Z,97679.24
2018-03-06T19:26:49.511Z,97667.21
2018-03-06T19:29:17.065Z,97664.06
2018-03-06T19:31:44.682Z,97658.46
2018-03-06T19:34:12.435Z,97652.66
2018-03-06T19:36:40.252Z,97656.48
2018-03-06T19:39:07.963Z,97650.67
2018-03-06T19:41:35.791Z,97658.56
2018-03-06T19:44:03.610Z,97658.48
2018-03-06T19:46:31.427Z,97637.00
2018-03-06T19:48:58.993Z,97638.40
2018-03-06T19:51:26.763Z,97628.69
2018-03-06T19:53:54.583Z,97626.41
2018-03-06T19:56:22.186Z,97609.83
2018-03-06T19:58:49.809Z,97622.13
2018-03-06T20:01:17.735Z,97595.74
2018-03-06T20:03:45.294Z,97580.18
2018-03-06T20:06:12.858Z,97568.23
2018-03-06T20:08:40.890Z,97576.42
2018-03-06T20:11:08.446Z,97570.36
2018-03-06T20:13:36.120Z,97572.91
2018-03-06T20:16:04.145Z,97565.98
2018-03-06T20:18:31.723Z,97572.46
2018-03-06T20:20:59.481Z,97572.05
2018-03-06T20:23:27.400Z,97570.09
2018-03-06T20:26:00.035Z,97574.60
2018-03-06T20:28:27.785Z,97587.95
2018-03-06T20:31:01.193Z,97586.34
2018-03-06T20:33:29.110Z,97595.26
2018-03-06T20:35:56.928Z,97569.81
2018-03-06T20:38:30.196Z,97555.78
2018-03-06T20:40:58.011Z,97552.70
2018-03-06T20:43:25.573Z,97557.71
2018-03-06T20:45:58.858Z,97570.23
2018-03-06T20:48:26.438Z,97568.08
2018-03-06T20:50:53.997Z,97567.77
2018-03-06T20:53:27.238Z,97568.33
2018-03-06T20:55:55.032Z,97556.35
2018-03-06T20:58:22.598Z,97536.05
2018-03-06T21:00:50.368Z,97537.53
2018-03-06T21:03:17.929Z,97551.39
2018-03-06T21:05:45.704Z,97540.75
2018-03-06T21:08:13.286Z,97529.59
2018-03-06T21:10:40.854Z,97513.02
2018-03-06T21:13:08.419Z,97498.54
2018-03-06T21:15:36.051Z,97505.59
2018-03-06T21:18:03.893Z,97496.52
2018-03-06T21:20:31.711Z,97501.78
2018-03-06T21:22:59.287Z,97483.09
2018-03-06T21:25:27.010Z,97508.64
2018-03-06T21:27:54.725Z,97512.31
2018-03-06T21:30:22.441Z,97508.62
2018-03-06T21:32:50.003Z,97479.53
2018-03-06T21:35:17.562Z,97489.86
2018-03-06T21:37:45.134Z,97490.06
2018-03-06T21:40:12.710Z,97486.06
2018-03-06T21:42:40.274Z,97483.21
2018-03-06T21:45:07.906Z,97474.92
2018-03-06T21:47:35.708Z,97474.72
2018-03-06T21:50:03.292Z,97459.78
2018-03-06T21:52:30.893Z,97442.20
2018-03-06T21:54:58.661Z,97442.11
2018-03-06T21:57:26.225Z,97454.97
2018-03-06T21:59:53.801Z,97459.46
2018-03-06T22:02:21.365Z,97454.89
2018-03-06T22:04:49.094Z,97443.01
2018-03-06T22:07:16.835Z,97439.50
2018-03-06T22:09:44.398Z,97430.91
2018-03-06T22:12:11.951Z,97423.13
2018-03-06T22:14:39.705Z,97411.13
2018-03-06T22:17:07.256Z,97414.38
2018-03-06T22:19:34.813Z,97416.10
2018-03-06T22:22:02.414Z,97411.50
2018-03-06T22:24:30.152Z,97427.28
2018-03-06T22:26:57.994Z,97425.07
2018-03-06T22:29:25.566Z,97428.25
2018-03-06T22:31:53.122Z,97425.87
2018-03-06T22:34:20.685Z,97426.74
2018-03-06T22:36:48.465Z,97418.30
2018-03-06T22:39:16.026Z,97410.61
2018-03-06T22:41:43.763Z,97412.59
2018-03-06T22:44:11.331Z,97413.47
2018-03-06T22:46:38.927Z,97417.59
2018-03-06T22:49:06.478Z,97407.66
2018-03-06T22:51:34.041Z,97404.69
2018-03-06T22:54:01.790Z,97407.97
2018-03-06T22:56:29.346Z,97406.86
2018-03-06T22:58:56.917Z,97405.92
2018-03-06T23:01:24.482Z,97409.89
2018-03-06T23:03:52.261Z,97417.67
2018-03-06T23:06:19.826Z,97418.09
2018-03-06T23:08:47.568Z,97422.17
2018-03-06T23:11:15.126Z,97412.38
2018-03-06T23:13:42.703Z,97417.58
2018-03-06T23:16:10.257Z,97409.49
2018-03-06T23:18:37.822Z,97425.14
2018-03-06T23:21:05.409Z,97424.09
2018-03-06T23:23:33.203Z,97419.97
2018-03-06T23:26:00.923Z,97408.31
2018-03-06T23:28:28.740Z,97403.28
2018-03-06T23:30:56.298Z,97391.78
2018-03-06T23:33:24.076Z,97405.14
2018-03-06T23:35:51.895Z,97401.10
2018-03-06T23:38:19.503Z,97406.77
2018-03-06T23:40:47.066Z,97399.06
2018-03-06T23:43:14.632Z,97388.36
2018-03-06T23:45:42.366Z,97398.02
2018-03-06T23:48:10.087Z,97407.09
2018-03-06T23:50:37.661Z,97408.70
2018-03-06T23:53:05.223Z,97418.59
2018-03-06T23:55:32.782Z,97419.31
2018-03-06T23:58:00.358Z,97408.22
